Aeroporto :
LOGIN :

Iscrizione | Disclaimer

   EN    FR    IT 

 










Sommario :    VFR   VFR Marginale   IFR   IFR Intensivo   IFR Molto Intensivo
Visibilità : 
Base nubi : 
>= 8 km
>= 3000ft
5 / 8 km
1000 / 3000 ft
1500m / 5 km
500 / 1000 ft
800 / 1500m
200 / 500 ft
< 800m
< 200 ft
Simboli :   Temporali  Nebbia  Neve Forte  Precipitazioni Forti  Vento > 20 kt
SIGMETs :   Varie  Temporali  Ghiacco  Turbolenza  Onda orograficha  Ceneri Vulcaniche






- Altitudine del aeroporto : 37 ft


EHVL - Vlieland Heliport

ULTIMO METAR :
  • 122055Z AUTO 17027KT 7000 -UP FEW009 BKN011 BKN014 FEW015CB 06/05 Q0992 GRN

METARs OBSOLETI :
  • 122042Z AUTO 17027KT 2300 -UP FEW008 FEW015CB SCT022 BKN027 06/05 Q0992 YLO
  • 122029Z AUTO 17028KT 6000 -UP FEW008 SCT009 FEW015CB BKN025 06/05 Q0992 GRN
  • 122025Z AUTO 17027KT 6000 -UP FEW008 SCT009 FEW015CB BKN023 06/05 Q0993 GRN
  • 122014Z AUTO 17025KT 5000 -UP FEW009 FEW015CB SCT022 BKN029 06/05 Q0993 WHT
  • 121955Z AUTO 18025KT 9000 -UP FEW009 BKN011 FEW015CB BKN019 06/05 Q0993 GRN
  • 121931Z AUTO 18025KT 3200 -UP FEW015CB BKN016 BKN020 OVC024 06/05 Q0993 YLO
  • 121925Z AUTO 18026KT 5000 -UP FEW015CB SCT017 BKN020 OVC024 06/04 Q0993 REDZUP WHT
  • 121913Z AUTO 17025KT 5000 -RADZ FEW015CB SCT024 BKN029 06/05 Q0993 WHT
  • 121855Z AUTO 17023KT 9999 FEW010 FEW015CB BKN016 BKN021 06/05 Q0993 WHT
  • 121845Z AUTO 17024KT 9999 FEW009 SCT011 FEW015CB BKN017 06/05 Q0993 GRN
  • 121831Z AUTO 18021KT 9999 FEW011 SCT015CB BKN017 BKN021 06/04 Q0994 WHT
  • 121825Z AUTO 18020KT 9999 FEW002 SCT015CB BKN035 05/04 Q0994 WHT
  • 121804Z AUTO 19020KT 6000 -UP FEW001 SCT015CB BKN023 OVC026 05/04 Q0994 WHT
  • 121759Z AUTO 20022KT 2500 -UP FEW005 SCT009 BKN012 SCT015CB 05/04 Q0994 YLO

Previsioni scadute.



MetMap, La meteo Aeronautica in un colpo d'occhio ! - Copyright ORBIFLY Dicembre 2007 - Disclaimer

ORBIFLY MET'MAP TEAM :

Programmazione e sviluppo : Alexandra Zaïnal
Concezione e sviluppo : Baudouin d'Aumeries
Co-Programmazione e sviluppo : Marc-Olivier Méhu
Supporto tecnico e logistico : Manuel Goepfert
Aiuto per la traduzione : Arnaldo La Scala

Contatto : metmap@orbifly.com




FONTI E CREDITI :

   NOAA